sensor_id;sensor_type;location;lat;lon;timestamp;P1;durP1;ratioP1;P2;durP2;ratioP2
15317;SDS011;7759;52.528;13.346;2023-08-07T00:00:30;2.47;;;1.63;;
15317;SDS011;7759;52.528;13.346;2023-08-07T00:02:56;2.63;;;1.40;;
15317;SDS011;7759;52.528;13.346;2023-08-07T00:05:22;4.15;;;1.73;;
15317;SDS011;7759;52.528;13.346;2023-08-07T00:07:48;3.45;;;1.70;;
15317;SDS011;7759;52.528;13.346;2023-08-07T00:10:14;3.20;;;1.88;;
15317;SDS011;7759;52.528;13.346;2023-08-07T00:12:40;2.58;;;1.77;;
15317;SDS011;7759;52.528;13.346;2023-08-07T00:15:08;3.85;;;1.75;;
15317;SDS011;7759;52.528;13.346;2023-08-07T00:17:34;3.33;;;1.90;;
15317;SDS011;7759;52.528;13.346;2023-08-07T00:20:00;2.38;;;1.95;;
15317;SDS011;7759;52.528;13.346;2023-08-07T00:22:26;6.35;;;2.08;;
15317;SDS011;7759;52.528;13.346;2023-08-07T00:24:52;4.00;;;1.77;;
15317;SDS011;7759;52.528;13.346;2023-08-07T00:27:18;2.58;;;1.98;;
15317;SDS011;7759;52.528;13.346;2023-08-07T00:29:44;5.35;;;1.83;;
15317;SDS011;7759;52.528;13.346;2023-08-07T00:32:09;3.03;;;1.80;;
15317;SDS011;7759;52.528;13.346;2023-08-07T00:34:35;3.53;;;1.88;;
15317;SDS011;7759;52.528;13.346;2023-08-07T00:37:01;4.35;;;2.20;;
15317;SDS011;7759;52.528;13.346;2023-08-07T00:39:27;3.53;;;1.80;;
15317;SDS011;7759;52.528;13.346;2023-08-07T00:41:53;2.75;;;2.08;;
15317;SDS011;7759;52.528;13.346;2023-08-07T00:44:19;2.22;;;1.55;;
15317;SDS011;7759;52.528;13.346;2023-08-07T00:46:45;2.95;;;2.03;;
15317;SDS011;7759;52.528;13.346;2023-08-07T00:49:12;3.72;;;2.05;;
15317;SDS011;7759;52.528;13.346;2023-08-07T00:51:38;4.18;;;2.10;;
15317;SDS011;7759;52.528;13.346;2023-08-07T00:54:04;4.18;;;1.80;;
15317;SDS011;7759;52.528;13.346;2023-08-07T00:56:31;2.45;;;1.50;;
15317;SDS011;7759;52.528;13.346;2023-08-07T00:58:58;2.67;;;1.65;;
15317;SDS011;7759;52.528;13.346;2023-08-07T01:01:24;2.92;;;1.70;;
15317;SDS011;7759;52.528;13.346;2023-08-07T01:03:50;3.50;;;1.73;;
15317;SDS011;7759;52.528;13.346;2023-08-07T01:06:16;4.38;;;1.58;;
15317;SDS011;7759;52.528;13.346;2023-08-07T01:08:42;3.05;;;1.58;;
15317;SDS011;7759;52.528;13.346;2023-08-07T01:11:21;2.53;;;1.58;;
15317;SDS011;7759;52.528;13.346;2023-08-07T01:13:54;4.55;;;1.88;;
15317;SDS011;7759;52.528;13.346;2023-08-07T01:16:31;4.22;;;1.90;;
15317;SDS011;7759;52.528;13.346;2023-08-07T01:18:58;3.28;;;1.60;;
15317;SDS011;7759;52.528;13.346;2023-08-07T01:21:26;2.72;;;1.90;;
15317;SDS011;7759;52.528;13.346;2023-08-07T01:23:52;3.60;;;1.98;;
15317;SDS011;7759;52.528;13.346;2023-08-07T01:26:19;2.50;;;1.95;;
15317;SDS011;7759;52.528;13.346;2023-08-07T01:28:58;5.55;;;1.80;;
15317;SDS011;7759;52.528;13.346;2023-08-07T01:31:26;3.85;;;1.80;;
15317;SDS011;7759;52.528;13.346;2023-08-07T01:33:57;1.80;;;1.70;;
15317;SDS011;7759;52.528;13.346;2023-08-07T01:36:24;3.08;;;1.75;;
15317;SDS011;7759;52.528;13.346;2023-08-07T01:38:50;2.92;;;1.88;;
15317;SDS011;7759;52.528;13.346;2023-08-07T01:41:17;8.57;;;2.10;;
15317;SDS011;7759;52.528;13.346;2023-08-07T01:43:43;3.88;;;2.25;;
15317;SDS011;7759;52.528;13.346;2023-08-07T01:46:10;3.55;;;2.03;;
15317;SDS011;7759;52.528;13.346;2023-08-07T01:48:36;3.03;;;1.70;;
15317;SDS011;7759;52.528;13.346;2023-08-07T01:51:02;2.63;;;2.08;;
15317;SDS011;7759;52.528;13.346;2023-08-07T01:53:28;3.03;;;2.00;;
15317;SDS011;7759;52.528;13.346;2023-08-07T01:55:54;3.72;;;2.15;;
15317;SDS011;7759;52.528;13.346;2023-08-07T01:58:19;3.13;;;2.15;;
15317;SDS011;7759;52.528;13.346;2023-08-07T02:00:45;6.47;;;2.05;;
15317;SDS011;7759;52.528;13.346;2023-08-07T02:03:11;2.65;;;2.00;;
15317;SDS011;7759;52.528;13.346;2023-08-07T02:05:37;1.75;;;1.65;;
15317;SDS011;7759;52.528;13.346;2023-08-07T02:08:03;2.70;;;1.70;;
15317;SDS011;7759;52.528;13.346;2023-08-07T02:10:29;2.60;;;1.90;;
15317;SDS011;7759;52.528;13.346;2023-08-07T02:12:57;2.40;;;1.90;;
15317;SDS011;7759;52.528;13.346;2023-08-07T02:15:24;2.25;;;1.60;;
15317;SDS011;7759;52.528;13.346;2023-08-07T02:17:50;3.05;;;2.20;;
15317;SDS011;7759;52.528;13.346;2023-08-07T02:20:16;3.55;;;1.90;;
15317;SDS011;7759;52.528;13.346;2023-08-07T02:22:41;2.58;;;2.13;;
15317;SDS011;7759;52.528;13.346;2023-08-07T02:25:07;4.47;;;2.22;;
15317;SDS011;7759;52.528;13.346;2023-08-07T02:27:33;4.03;;;2.17;;
15317;SDS011;7759;52.528;13.346;2023-08-07T02:29:59;3.38;;;1.90;;
15317;SDS011;7759;52.528;13.346;2023-08-07T02:32:27;3.90;;;2.40;;
15317;SDS011;7759;52.528;13.346;2023-08-07T02:34:53;3.10;;;2.20;;
15317;SDS011;7759;52.528;13.346;2023-08-07T02:37:19;5.85;;;4.18;;
15317;SDS011;7759;52.528;13.346;2023-08-07T02:39:45;5.63;;;2.40;;
15317;SDS011;7759;52.528;13.346;2023-08-07T02:42:11;3.80;;;2.58;;
15317;SDS011;7759;52.528;13.346;2023-08-07T02:44:37;3.58;;;2.03;;
15317;SDS011;7759;52.528;13.346;2023-08-07T02:47:03;5.90;;;2.30;;
15317;SDS011;7759;52.528;13.346;2023-08-07T02:49:29;3.03;;;2.10;;
15317;SDS011;7759;52.528;13.346;2023-08-07T02:51:55;4.22;;;2.55;;
15317;SDS011;7759;52.528;13.346;2023-08-07T02:54:21;3.60;;;2.42;;
15317;SDS011;7759;52.528;13.346;2023-08-07T02:56:47;4.57;;;2.60;;
15317;SDS011;7759;52.528;13.346;2023-08-07T02:59:14;4.35;;;2.55;;
15317;SDS011;7759;52.528;13.346;2023-08-07T03:01:40;3.30;;;2.40;;
15317;SDS011;7759;52.528;13.346;2023-08-07T03:04:06;3.38;;;2.30;;
15317;SDS011;7759;52.528;13.346;2023-08-07T03:06:31;3.05;;;2.40;;
15317;SDS011;7759;52.528;13.346;2023-08-07T03:08:57;6.72;;;2.65;;
15317;SDS011;7759;52.528;13.346;2023-08-07T03:11:23;5.05;;;3.08;;
15317;SDS011;7759;52.528;13.346;2023-08-07T03:13:49;3.55;;;2.22;;
15317;SDS011;7759;52.528;13.346;2023-08-07T03:16:15;5.43;;;2.45;;
15317;SDS011;7759;52.528;13.346;2023-08-07T03:18:41;2.95;;;2.42;;
15317;SDS011;7759;52.528;13.346;2023-08-07T03:21:07;3.50;;;2.50;;
15317;SDS011;7759;52.528;13.346;2023-08-07T03:23:33;5.93;;;3.10;;
15317;SDS011;7759;52.528;13.346;2023-08-07T03:26:02;3.67;;;2.13;;
15317;SDS011;7759;52.528;13.346;2023-08-07T03:28:29;2.95;;;2.63;;
15317;SDS011;7759;52.528;13.346;2023-08-07T03:30:55;4.03;;;2.70;;
15317;SDS011;7759;52.528;13.346;2023-08-07T03:33:21;4.40;;;2.40;;
15317;SDS011;7759;52.528;13.346;2023-08-07T03:35:47;5.07;;;3.33;;
15317;SDS011;7759;52.528;13.346;2023-08-07T03:38:12;3.00;;;2.70;;
15317;SDS011;7759;52.528;13.346;2023-08-07T03:40:38;4.80;;;2.55;;
15317;SDS011;7759;52.528;13.346;2023-08-07T03:43:04;5.07;;;2.90;;
15317;SDS011;7759;52.528;13.346;2023-08-07T03:45:30;2.75;;;2.40;;
15317;SDS011;7759;52.528;13.346;2023-08-07T03:47:56;4.82;;;2.40;;
15317;SDS011;7759;52.528;13.346;2023-08-07T03:50:22;3.28;;;2.58;;
15317;SDS011;7759;52.528;13.346;2023-08-07T03:52:48;4.03;;;2.47;;
15317;SDS011;7759;52.528;13.346;2023-08-07T03:55:14;3.92;;;2.22;;
15317;SDS011;7759;52.528;13.346;2023-08-07T03:57:40;8.15;;;2.28;;
15317;SDS011;7759;52.528;13.346;2023-08-07T04:00:06;6.82;;;2.90;;
15317;SDS011;7759;52.528;13.346;2023-08-07T04:02:32;4.75;;;2.97;;
15317;SDS011;7759;52.528;13.346;2023-08-07T04:04:58;3.55;;;2.28;;
15317;SDS011;7759;52.528;13.346;2023-08-07T04:07:24;3.78;;;2.45;;
15317;SDS011;7759;52.528;13.346;2023-08-07T04:09:50;3.80;;;2.70;;
15317;SDS011;7759;52.528;13.346;2023-08-07T04:12:16;6.10;;;2.55;;
15317;SDS011;7759;52.528;13.346;2023-08-07T04:14:42;3.70;;;2.72;;
15317;SDS011;7759;52.528;13.346;2023-08-07T04:17:07;4.15;;;2.55;;
15317;SDS011;7759;52.528;13.346;2023-08-07T04:19:33;3.58;;;2.35;;
15317;SDS011;7759;52.528;13.346;2023-08-07T04:21:59;4.22;;;2.40;;
15317;SDS011;7759;52.528;13.346;2023-08-07T04:24:25;4.10;;;2.40;;
15317;SDS011;7759;52.528;13.346;2023-08-07T04:26:51;4.27;;;2.43;;
15317;SDS011;7759;52.528;13.346;2023-08-07T04:29:18;4.05;;;2.42;;
15317;SDS011;7759;52.528;13.346;2023-08-07T04:31:44;7.82;;;2.35;;
15317;SDS011;7759;52.528;13.346;2023-08-07T04:34:10;3.60;;;2.53;;
15317;SDS011;7759;52.528;13.346;2023-08-07T04:36:38;4.88;;;2.75;;
15317;SDS011;7759;52.528;13.346;2023-08-07T04:39:04;3.85;;;2.88;;
15317;SDS011;7759;52.528;13.346;2023-08-07T04:41:30;7.40;;;2.63;;
15317;SDS011;7759;52.528;13.346;2023-08-07T04:43:56;4.20;;;2.72;;
15317;SDS011;7759;52.528;13.346;2023-08-07T04:46:22;4.60;;;3.20;;
15317;SDS011;7759;52.528;13.346;2023-08-07T04:48:48;7.63;;;2.90;;
15317;SDS011;7759;52.528;13.346;2023-08-07T04:51:14;2.75;;;2.13;;
15317;SDS011;7759;52.528;13.346;2023-08-07T04:53:40;2.75;;;2.03;;
15317;SDS011;7759;52.528;13.346;2023-08-07T04:56:06;5.07;;;2.97;;
15317;SDS011;7759;52.528;13.346;2023-08-07T04:58:32;3.33;;;2.13;;
15317;SDS011;7759;52.528;13.346;2023-08-07T05:00:58;2.60;;;2.03;;
15317;SDS011;7759;52.528;13.346;2023-08-07T05:03:24;2.08;;;1.70;;
15317;SDS011;7759;52.528;13.346;2023-08-07T05:05:57;2.20;;;2.00;;
15317;SDS011;7759;52.528;13.346;2023-08-07T05:08:23;2.58;;;1.50;;
15317;SDS011;7759;52.528;13.346;2023-08-07T05:10:49;2.60;;;2.03;;
15317;SDS011;7759;52.528;13.346;2023-08-07T05:13:15;5.30;;;2.30;;
15317;SDS011;7759;52.528;13.346;2023-08-07T05:15:41;3.05;;;2.22;;
15317;SDS011;7759;52.528;13.346;2023-08-07T05:18:07;4.57;;;4.13;;
15317;SDS011;7759;52.528;13.346;2023-08-07T05:20:33;2.45;;;2.17;;
15317;SDS011;7759;52.528;13.346;2023-08-07T05:22:58;3.63;;;2.30;;
15317;SDS011;7759;52.528;13.346;2023-08-07T05:25:25;1.90;;;1.80;;
15317;SDS011;7759;52.528;13.346;2023-08-07T05:27:51;4.57;;;1.83;;
15317;SDS011;7759;52.528;13.346;2023-08-07T05:30:17;4.68;;;2.05;;
15317;SDS011;7759;52.528;13.346;2023-08-07T05:32:43;6.82;;;1.90;;
15317;SDS011;7759;52.528;13.346;2023-08-07T05:35:09;2.30;;;1.83;;
15317;SDS011;7759;52.528;13.346;2023-08-07T05:37:35;2.42;;;1.77;;
15317;SDS011;7759;52.528;13.346;2023-08-07T05:40:02;1.48;;;1.30;;
15317;SDS011;7759;52.528;13.346;2023-08-07T05:42:28;1.63;;;1.52;;
15317;SDS011;7759;52.528;13.346;2023-08-07T05:44:54;10.68;;;3.20;;
15317;SDS011;7759;52.528;13.346;2023-08-07T05:47:20;5.03;;;2.33;;
15317;SDS011;7759;52.528;13.346;2023-08-07T05:49:45;2.78;;;1.70;;
15317;SDS011;7759;52.528;13.346;2023-08-07T05:52:11;2.80;;;1.92;;
15317;SDS011;7759;52.528;13.346;2023-08-07T05:54:37;4.22;;;2.00;;
15317;SDS011;7759;52.528;13.346;2023-08-07T05:57:03;3.38;;;1.98;;
15317;SDS011;7759;52.528;13.346;2023-08-07T05:59:29;3.75;;;1.85;;
15317;SDS011;7759;52.528;13.346;2023-08-07T06:01:55;2.78;;;1.88;;
15317;SDS011;7759;52.528;13.346;2023-08-07T06:04:21;4.90;;;1.70;;
15317;SDS011;7759;52.528;13.346;2023-08-07T06:06:47;2.25;;;1.70;;
15317;SDS011;7759;52.528;13.346;2023-08-07T06:09:13;1.90;;;1.60;;
15317;SDS011;7759;52.528;13.346;2023-08-07T06:11:40;1.30;;;1.20;;
15317;SDS011;7759;52.528;13.346;2023-08-07T06:14:06;3.97;;;1.60;;
15317;SDS011;7759;52.528;13.346;2023-08-07T06:16:32;4.05;;;1.80;;
15317;SDS011;7759;52.528;13.346;2023-08-07T06:18:58;5.68;;;2.03;;
15317;SDS011;7759;52.528;13.346;2023-08-07T06:21:24;3.03;;;2.40;;
15317;SDS011;7759;52.528;13.346;2023-08-07T06:23:50;3.15;;;1.92;;
15317;SDS011;7759;52.528;13.346;2023-08-07T06:26:16;3.65;;;2.03;;
15317;SDS011;7759;52.528;13.346;2023-08-07T06:28:42;2.40;;;1.83;;
15317;SDS011;7759;52.528;13.346;2023-08-07T06:31:09;2.95;;;1.63;;
15317;SDS011;7759;52.528;13.346;2023-08-07T06:33:35;2.45;;;1.60;;
15317;SDS011;7759;52.528;13.346;2023-08-07T06:36:02;2.72;;;1.70;;
15317;SDS011;7759;52.528;13.346;2023-08-07T06:38:28;2.45;;;1.52;;
15317;SDS011;7759;52.528;13.346;2023-08-07T06:40:54;1.55;;;1.30;;
15317;SDS011;7759;52.528;13.346;2023-08-07T06:43:20;3.55;;;2.20;;
15317;SDS011;7759;52.528;13.346;2023-08-07T06:45:46;1.85;;;1.30;;
15317;SDS011;7759;52.528;13.346;2023-08-07T06:48:12;4.65;;;1.40;;
15317;SDS011;7759;52.528;13.346;2023-08-07T06:50:38;2.38;;;1.27;;
15317;SDS011;7759;52.528;13.346;2023-08-07T06:53:04;1.65;;;1.42;;
15317;SDS011;7759;52.528;13.346;2023-08-07T06:55:30;5.57;;;1.30;;
15317;SDS011;7759;52.528;13.346;2023-08-07T06:57:57;2.42;;;1.45;;
15317;SDS011;7759;52.528;13.346;2023-08-07T07:00:23;3.00;;;1.45;;
15317;SDS011;7759;52.528;13.346;2023-08-07T07:02:49;3.40;;;1.55;;
15317;SDS011;7759;52.528;13.346;2023-08-07T07:05:15;2.22;;;1.70;;
15317;SDS011;7759;52.528;13.346;2023-08-07T07:07:41;1.40;;;1.30;;
15317;SDS011;7759;52.528;13.346;2023-08-07T07:10:07;3.75;;;1.58;;
15317;SDS011;7759;52.528;13.346;2023-08-07T07:12:33;3.72;;;1.40;;
15317;SDS011;7759;52.528;13.346;2023-08-07T07:14:59;1.60;;;1.30;;
15317;SDS011;7759;52.528;13.346;2023-08-07T07:17:25;3.00;;;1.60;;
15317;SDS011;7759;52.528;13.346;2023-08-07T07:19:51;3.55;;;1.40;;
15317;SDS011;7759;52.528;13.346;2023-08-07T07:22:17;2.08;;;1.13;;
15317;SDS011;7759;52.528;13.346;2023-08-07T07:24:43;3.05;;;2.17;;
15317;SDS011;7759;52.528;13.346;2023-08-07T07:27:09;2.17;;;1.60;;
15317;SDS011;7759;52.528;13.346;2023-08-07T07:29:35;2.20;;;1.40;;
15317;SDS011;7759;52.528;13.346;2023-08-07T07:32:01;2.13;;;1.95;;
15317;SDS011;7759;52.528;13.346;2023-08-07T07:34:26;2.28;;;1.45;;
15317;SDS011;7759;52.528;13.346;2023-08-07T07:36:52;3.22;;;1.48;;
15317;SDS011;7759;52.528;13.346;2023-08-07T07:39:19;4.28;;;1.60;;
15317;SDS011;7759;52.528;13.346;2023-08-07T07:41:45;3.35;;;1.33;;
15317;SDS011;7759;52.528;13.346;2023-08-07T07:44:10;1.83;;;1.30;;
15317;SDS011;7759;52.528;13.346;2023-08-07T07:46:37;4.07;;;1.67;;
15317;SDS011;7759;52.528;13.346;2023-08-07T07:49:03;4.57;;;1.40;;
15317;SDS011;7759;52.528;13.346;2023-08-07T07:51:30;1.48;;;1.33;;
15317;SDS011;7759;52.528;13.346;2023-08-07T07:53:56;1.52;;;1.17;;
15317;SDS011;7759;52.528;13.346;2023-08-07T07:56:22;3.05;;;1.38;;
15317;SDS011;7759;52.528;13.346;2023-08-07T07:58:48;2.55;;;1.40;;
15317;SDS011;7759;52.528;13.346;2023-08-07T08:01:14;4.00;;;1.52;;
15317;SDS011;7759;52.528;13.346;2023-08-07T08:03:40;1.58;;;1.42;;
15317;SDS011;7759;52.528;13.346;2023-08-07T08:06:08;3.20;;;1.40;;
15317;SDS011;7759;52.528;13.346;2023-08-07T08:08:34;1.42;;;1.27;;
15317;SDS011;7759;52.528;13.346;2023-08-07T08:11:00;1.75;;;1.40;;
15317;SDS011;7759;52.528;13.346;2023-08-07T08:13:26;1.80;;;1.40;;
15317;SDS011;7759;52.528;13.346;2023-08-07T08:15:51;2.00;;;1.67;;
15317;SDS011;7759;52.528;13.346;2023-08-07T08:18:17;2.90;;;1.20;;
15317;SDS011;7759;52.528;13.346;2023-08-07T08:20:43;2.03;;;1.48;;
15317;SDS011;7759;52.528;13.346;2023-08-07T08:23:09;2.15;;;1.48;;
15317;SDS011;7759;52.528;13.346;2023-08-07T08:25:35;2.83;;;1.35;;
15317;SDS011;7759;52.528;13.346;2023-08-07T08:28:01;1.50;;;1.40;;
15317;SDS011;7759;52.528;13.346;2023-08-07T08:30:28;1.85;;;1.52;;
15317;SDS011;7759;52.528;13.346;2023-08-07T08:32:54;1.60;;;1.30;;
15317;SDS011;7759;52.528;13.346;2023-08-07T08:35:20;1.40;;;1.30;;
15317;SDS011;7759;52.528;13.346;2023-08-07T08:37:46;1.67;;;1.55;;
15317;SDS011;7759;52.528;13.346;2023-08-07T08:40:12;2.92;;;1.60;;
15317;SDS011;7759;52.528;13.346;2023-08-07T08:42:42;3.40;;;1.38;;
15317;SDS011;7759;52.528;13.346;2023-08-07T08:45:09;2.40;;;1.48;;
15317;SDS011;7759;52.528;13.346;2023-08-07T08:47:36;1.70;;;1.52;;
15317;SDS011;7759;52.528;13.346;2023-08-07T08:50:03;2.53;;;1.70;;
15317;SDS011;7759;52.528;13.346;2023-08-07T08:52:30;4.63;;;1.60;;
15317;SDS011;7759;52.528;13.346;2023-08-07T08:54:57;2.75;;;1.67;;
15317;SDS011;7759;52.528;13.346;2023-08-07T08:57:24;3.05;;;1.40;;
15317;SDS011;7759;52.528;13.346;2023-08-07T08:59:51;2.35;;;1.35;;
15317;SDS011;7759;52.528;13.346;2023-08-07T09:02:17;2.08;;;1.30;;
15317;SDS011;7759;52.528;13.346;2023-08-07T09:04:46;3.65;;;1.50;;
15317;SDS011;7759;52.528;13.346;2023-08-07T09:07:15;3.05;;;1.52;;
15317;SDS011;7759;52.528;13.346;2023-08-07T09:09:41;6.25;;;1.80;;
15317;SDS011;7759;52.528;13.346;2023-08-07T09:12:10;4.65;;;1.55;;
15317;SDS011;7759;52.528;13.346;2023-08-07T09:14:38;3.83;;;1.70;;
15317;SDS011;7759;52.528;13.346;2023-08-07T09:17:07;1.90;;;1.30;;
15317;SDS011;7759;52.528;13.346;2023-08-07T09:19:34;2.03;;;1.50;;
15317;SDS011;7759;52.528;13.346;2023-08-07T09:22:00;1.83;;;1.38;;
15317;SDS011;7759;52.528;13.346;2023-08-07T09:24:26;3.95;;;2.15;;
15317;SDS011;7759;52.528;13.346;2023-08-07T09:26:52;1.73;;;1.27;;
15317;SDS011;7759;52.528;13.346;2023-08-07T09:29:18;6.53;;;2.50;;
15317;SDS011;7759;52.528;13.346;2023-08-07T09:31:44;2.42;;;1.60;;
15317;SDS011;7759;52.528;13.346;2023-08-07T09:34:11;3.25;;;1.30;;
15317;SDS011;7759;52.528;13.346;2023-08-07T09:36:38;1.75;;;1.40;;
15317;SDS011;7759;52.528;13.346;2023-08-07T09:39:04;4.32;;;1.52;;
15317;SDS011;7759;52.528;13.346;2023-08-07T09:41:30;2.40;;;1.40;;
15317;SDS011;7759;52.528;13.346;2023-08-07T09:43:57;1.40;;;1.30;;
15317;SDS011;7759;52.528;13.346;2023-08-07T09:46:23;2.72;;;1.50;;
15317;SDS011;7759;52.528;13.346;2023-08-07T09:48:50;6.18;;;1.80;;
15317;SDS011;7759;52.528;13.346;2023-08-07T09:51:16;3.08;;;1.40;;
15317;SDS011;7759;52.528;13.346;2023-08-07T09:53:42;2.65;;;2.13;;
15317;SDS011;7759;52.528;13.346;2023-08-07T09:56:08;3.78;;;1.80;;
15317;SDS011;7759;52.528;13.346;2023-08-07T09:58:34;2.70;;;1.38;;
15317;SDS011;7759;52.528;13.346;2023-08-07T10:01:00;3.10;;;1.25;;
15317;SDS011;7759;52.528;13.346;2023-08-07T10:03:26;3.55;;;1.50;;
15317;SDS011;7759;52.528;13.346;2023-08-07T10:05:52;2.17;;;1.45;;
15317;SDS011;7759;52.528;13.346;2023-08-07T10:08:18;1.23;;;1.13;;
15317;SDS011;7759;52.528;13.346;2023-08-07T10:10:44;4.70;;;1.73;;
15317;SDS011;7759;52.528;13.346;2023-08-07T10:13:12;1.40;;;1.10;;
15317;SDS011;7759;52.528;13.346;2023-08-07T10:15:38;3.65;;;1.60;;
15317;SDS011;7759;52.528;13.346;2023-08-07T10:18:06;5.53;;;1.63;;
15317;SDS011;7759;52.528;13.346;2023-08-07T10:20:32;3.55;;;1.42;;
15317;SDS011;7759;52.528;13.346;2023-08-07T10:23:07;1.98;;;1.77;;
15317;SDS011;7759;52.528;13.346;2023-08-07T10:25:33;3.72;;;1.40;;
15317;SDS011;7759;52.528;13.346;2023-08-07T10:28:00;4.50;;;1.83;;
15317;SDS011;7759;52.528;13.346;2023-08-07T10:30:27;1.70;;;1.27;;
15317;SDS011;7759;52.528;13.346;2023-08-07T10:32:53;1.70;;;1.20;;
15317;SDS011;7759;52.528;13.346;2023-08-07T10:35:30;1.70;;;1.20;;
15317;SDS011;7759;52.528;13.346;2023-08-07T10:38:04;1.73;;;1.20;;
15317;SDS011;7759;52.528;13.346;2023-08-07T10:40:31;3.80;;;1.27;;
15317;SDS011;7759;52.528;13.346;2023-08-07T10:43:11;2.75;;;1.08;;
15317;SDS011;7759;52.528;13.346;2023-08-07T10:45:37;2.00;;;1.05;;
15317;SDS011;7759;52.528;13.346;2023-08-07T10:48:10;3.13;;;1.42;;
15317;SDS011;7759;52.528;13.346;2023-08-07T10:53:35;1.58;;;1.25;;
15317;SDS011;7759;52.528;13.346;2023-08-07T10:56:04;1.38;;;1.05;;
15317;SDS011;7759;52.528;13.346;2023-08-07T10:58:36;2.35;;;1.13;;
15317;SDS011;7759;52.528;13.346;2023-08-07T11:01:22;1.33;;;1.08;;
15317;SDS011;7759;52.528;13.346;2023-08-07T11:03:49;1.88;;;1.40;;
15317;SDS011;7759;52.528;13.346;2023-08-07T11:06:16;3.45;;;1.30;;
15317;SDS011;7759;52.528;13.346;2023-08-07T11:08:42;3.60;;;1.40;;
15317;SDS011;7759;52.528;13.346;2023-08-07T11:11:08;2.65;;;1.38;;
15317;SDS011;7759;52.528;13.346;2023-08-07T11:13:34;1.33;;;1.05;;
15317;SDS011;7759;52.528;13.346;2023-08-07T11:16:00;2.47;;;1.30;;
15317;SDS011;7759;52.528;13.346;2023-08-07T11:18:27;1.95;;;1.08;;
15317;SDS011;7759;52.528;13.346;2023-08-07T11:20:54;2.72;;;1.60;;
15317;SDS011;7759;52.528;13.346;2023-08-07T11:23:24;2.38;;;1.23;;
15317;SDS011;7759;52.528;13.346;2023-08-07T11:25:51;2.45;;;1.40;;
15317;SDS011;7759;52.528;13.346;2023-08-07T11:28:18;1.55;;;1.13;;
15317;SDS011;7759;52.528;13.346;2023-08-07T11:30:44;3.38;;;1.48;;
15317;SDS011;7759;52.528;13.346;2023-08-07T11:33:11;1.42;;;1.10;;
15317;SDS011;7759;52.528;13.346;2023-08-07T11:35:40;2.50;;;1.70;;
15317;SDS011;7759;52.528;13.346;2023-08-07T11:38:06;2.83;;;1.40;;
15317;SDS011;7759;52.528;13.346;2023-08-07T11:40:32;8.30;;;1.80;;
15317;SDS011;7759;52.528;13.346;2023-08-07T11:42:58;3.80;;;1.27;;
15317;SDS011;7759;52.528;13.346;2023-08-07T11:45:24;2.97;;;1.40;;
15317;SDS011;7759;52.528;13.346;2023-08-07T11:47:49;2.45;;;1.58;;
15317;SDS011;7759;52.528;13.346;2023-08-07T11:50:15;4.03;;;1.67;;
15317;SDS011;7759;52.528;13.346;2023-08-07T11:52:41;1.30;;;1.20;;
15317;SDS011;7759;52.528;13.346;2023-08-07T11:55:07;1.73;;;1.20;;
15317;SDS011;7759;52.528;13.346;2023-08-07T11:57:34;2.53;;;1.40;;
15317;SDS011;7759;52.528;13.346;2023-08-07T12:00:05;2.58;;;1.60;;
15317;SDS011;7759;52.528;13.346;2023-08-07T12:02:35;2.28;;;1.33;;
15317;SDS011;7759;52.528;13.346;2023-08-07T12:05:00;2.60;;;1.45;;
15317;SDS011;7759;52.528;13.346;2023-08-07T12:07:27;2.33;;;1.40;;
15317;SDS011;7759;52.528;13.346;2023-08-07T12:09:53;2.05;;;1.33;;
15317;SDS011;7759;52.528;13.346;2023-08-07T12:12:19;1.98;;;1.30;;
15317;SDS011;7759;52.528;13.346;2023-08-07T12:14:45;3.10;;;1.17;;
15317;SDS011;7759;52.528;13.346;2023-08-07T12:17:11;2.22;;;1.30;;
15317;SDS011;7759;52.528;13.346;2023-08-07T12:19:38;1.10;;;1.00;;
15317;SDS011;7759;52.528;13.346;2023-08-07T12:22:06;1.55;;;1.02;;
15317;SDS011;7759;52.528;13.346;2023-08-07T12:24:34;4.30;;;1.67;;
15317;SDS011;7759;52.528;13.346;2023-08-07T12:27:00;2.17;;;1.60;;
15317;SDS011;7759;52.528;13.346;2023-08-07T12:29:27;4.00;;;1.10;;
15317;SDS011;7759;52.528;13.346;2023-08-07T12:31:54;4.03;;;1.70;;
15317;SDS011;7759;52.528;13.346;2023-08-07T12:34:20;1.50;;;1.30;;
15317;SDS011;7759;52.528;13.346;2023-08-07T12:36:46;2.22;;;1.05;;
15317;SDS011;7759;52.528;13.346;2023-08-07T12:39:12;1.92;;;0.95;;
15317;SDS011;7759;52.528;13.346;2023-08-07T12:41:38;2.53;;;1.40;;
15317;SDS011;7759;52.528;13.346;2023-08-07T12:44:04;1.40;;;1.02;;
15317;SDS011;7759;52.528;13.346;2023-08-07T12:46:30;4.18;;;1.40;;
15317;SDS011;7759;52.528;13.346;2023-08-07T12:48:56;4.82;;;1.40;;
15317;SDS011;7759;52.528;13.346;2023-08-07T12:51:23;5.35;;;1.80;;
15317;SDS011;7759;52.528;13.346;2023-08-07T12:53:49;2.83;;;1.38;;
15317;SDS011;7759;52.528;13.346;2023-08-07T12:56:16;3.50;;;1.38;;
15317;SDS011;7759;52.528;13.346;2023-08-07T12:58:42;2.60;;;1.38;;
15317;SDS011;7759;52.528;13.346;2023-08-07T13:01:08;4.38;;;2.08;;
15317;SDS011;7759;52.528;13.346;2023-08-07T13:03:35;6.53;;;2.00;;
15317;SDS011;7759;52.528;13.346;2023-08-07T13:06:01;3.28;;;1.35;;
15317;SDS011;7759;52.528;13.346;2023-08-07T13:08:30;4.28;;;1.60;;
15317;SDS011;7759;52.528;13.346;2023-08-07T13:10:58;2.45;;;1.33;;
15317;SDS011;7759;52.528;13.346;2023-08-07T13:13:24;4.57;;;1.30;;
15317;SDS011;7759;52.528;13.346;2023-08-07T13:15:50;5.50;;;1.48;;
15317;SDS011;7759;52.528;13.346;2023-08-07T13:18:16;2.47;;;1.17;;
15317;SDS011;7759;52.528;13.346;2023-08-07T13:20:41;2.88;;;1.40;;
15317;SDS011;7759;52.528;13.346;2023-08-07T13:23:07;3.33;;;1.45;;
15317;SDS011;7759;52.528;13.346;2023-08-07T13:25:33;2.50;;;1.20;;
15317;SDS011;7759;52.528;13.346;2023-08-07T13:27:59;2.40;;;1.10;;
15317;SDS011;7759;52.528;13.346;2023-08-07T13:30:25;3.28;;;1.52;;
15317;SDS011;7759;52.528;13.346;2023-08-07T13:32:53;5.50;;;2.72;;
15317;SDS011;7759;52.528;13.346;2023-08-07T13:35:19;4.72;;;1.25;;
15317;SDS011;7759;52.528;13.346;2023-08-07T13:37:45;3.85;;;1.23;;
15317;SDS011;7759;52.528;13.346;2023-08-07T13:40:11;3.85;;;1.30;;
15317;SDS011;7759;52.528;13.346;2023-08-07T13:42:38;4.00;;;1.52;;
15317;SDS011;7759;52.528;13.346;2023-08-07T13:45:04;3.88;;;1.45;;
15317;SDS011;7759;52.528;13.346;2023-08-07T13:47:32;3.17;;;1.10;;
15317;SDS011;7759;52.528;13.346;2023-08-07T13:49:58;4.57;;;1.25;;
15317;SDS011;7759;52.528;13.346;2023-08-07T13:52:24;3.60;;;1.20;;
15317;SDS011;7759;52.528;13.346;2023-08-07T13:54:50;3.75;;;1.30;;
15317;SDS011;7759;52.528;13.346;2023-08-07T13:57:16;3.42;;;1.20;;
15317;SDS011;7759;52.528;13.346;2023-08-07T13:59:42;2.53;;;1.20;;
15317;SDS011;7759;52.528;13.346;2023-08-07T14:02:08;6.13;;;1.50;;
15317;SDS011;7759;52.528;13.346;2023-08-07T14:04:34;2.63;;;1.13;;
15317;SDS011;7759;52.528;13.346;2023-08-07T14:07:01;4.38;;;1.45;;
15317;SDS011;7759;52.528;13.346;2023-08-07T14:09:27;4.68;;;1.73;;
15317;SDS011;7759;52.528;13.346;2023-08-07T14:11:53;4.63;;;1.90;;
15317;SDS011;7759;52.528;13.346;2023-08-07T14:14:20;4.55;;;1.30;;
15317;SDS011;7759;52.528;13.346;2023-08-07T14:16:46;4.13;;;1.20;;
15317;SDS011;7759;52.528;13.346;2023-08-07T14:19:13;5.32;;;1.42;;
15317;SDS011;7759;52.528;13.346;2023-08-07T14:21:39;2.42;;;1.45;;
15317;SDS011;7759;52.528;13.346;2023-08-07T14:24:05;3.80;;;1.38;;
15317;SDS011;7759;52.528;13.346;2023-08-07T14:26:31;2.55;;;1.20;;
15317;SDS011;7759;52.528;13.346;2023-08-07T14:28:57;3.95;;;1.45;;
15317;SDS011;7759;52.528;13.346;2023-08-07T14:31:23;2.47;;;1.25;;
15317;SDS011;7759;52.528;13.346;2023-08-07T14:33:49;3.45;;;1.60;;
15317;SDS011;7759;52.528;13.346;2023-08-07T14:36:15;5.65;;;1.63;;
15317;SDS011;7759;52.528;13.346;2023-08-07T14:38:41;2.53;;;1.45;;
15317;SDS011;7759;52.528;13.346;2023-08-07T14:41:07;3.90;;;1.20;;
15317;SDS011;7759;52.528;13.346;2023-08-07T14:43:33;2.08;;;1.05;;
15317;SDS011;7759;52.528;13.346;2023-08-07T14:45:59;2.30;;;1.23;;